Time;durP1;ratioP1;P1;durP2;ratioP2;P2;SDS_P1;SDS_P2;PMS_P1;PMS_P2;Temp;Humidity;BMP_temperature;BMP_pressure;BME280_temperature;BME280_humidity;BME280_pressure;Samples;Min_cycle;Max_cycle;Signal;HPM_P1;HPM_P2
2021/11/09 00:00:42;;;;;;;;;;;20.50;42.40;;;;;;474209;251;1089;-47
2021/11/09 00:02:45;;;;;;;;;;;20.40;42.40;;;;;;474191;251;1312;-47
2021/11/09 00:04:49;;;;;;;;;;;20.50;42.50;;;;;;474486;251;2268;-46
2021/11/09 00:06:54;;;;;;;;;;;20.40;42.50;;;;;;473887;251;1412;-47
2021/11/09 00:08:54;;;;;;;;;;;20.40;42.50;;;;;;474123;251;2360;-46
2021/11/09 00:10:50;;;;;;;;;;;20.40;42.50;;;;;;473850;251;2324;-47
2021/11/09 00:12:52;;;;;;;;;;;20.40;42.50;;;;;;474080;251;1175;-47
2021/11/09 00:14:53;;;;;;;;;;;20.40;42.50;;;;;;474499;251;1115;-47
2021/11/09 00:16:55;;;;;;;;;;;20.40;42.50;;;;;;474184;251;1139;-47
2021/11/09 00:18:56;;;;;;;;;;;20.40;42.50;;;;;;474142;251;1216;-47
2021/11/09 00:20:57;;;;;;;;;;;20.50;42.50;;;;;;474592;251;1196;-47
2021/11/09 00:22:58;;;;;;;;;;;20.50;42.40;;;;;;474163;251;1202;-47
2021/11/09 00:25:00;;;;;;;;;;;20.50;42.40;;;;;;474264;251;2114;-47
2021/11/09 00:27:01;;;;;;;;;;;20.50;42.30;;;;;;474114;251;1251;-47
2021/11/09 00:29:02;;;;;;;;;;;20.50;42.30;;;;;;474125;251;1105;-47
2021/11/09 00:31:04;;;;;;;;;;;20.50;42.30;;;;;;474274;247;1339;-46
2021/11/09 00:33:05;;;;;;;;;;;20.50;42.40;;;;;;474220;251;1134;-47
2021/11/09 00:35:07;;;;;;;;;;;20.50;42.40;;;;;;474235;251;1075;-47
2021/11/09 00:37:08;;;;;;;;;;;20.50;42.40;;;;;;474399;251;1303;-47
2021/11/09 00:39:12;;;;;;;;;;;20.40;42.40;;;;;;474681;251;1039;-46
2021/11/09 00:41:11;;;;;;;;;;;20.50;42.40;;;;;;474322;251;2310;-46
2021/11/09 00:43:12;;;;;;;;;;;20.50;42.50;;;;;;474658;251;981;-47
2021/11/09 00:45:13;;;;;;;;;;;20.50;42.40;;;;;;474177;251;2193;-47
2021/11/09 00:47:15;;;;;;;;;;;20.50;42.40;;;;;;474266;251;1198;-46
2021/11/09 00:49:16;;;;;;;;;;;20.40;42.40;;;;;;474659;251;1175;-47
2021/11/09 00:51:17;;;;;;;;;;;20.50;42.40;;;;;;474577;251;1168;-47
2021/11/09 00:53:18;;;;;;;;;;;20.50;42.40;;;;;;474268;251;1165;-46
2021/11/09 00:55:20;;;;;;;;;;;20.40;42.40;;;;;;474355;251;1173;-47
2021/11/09 00:57:21;;;;;;;;;;;20.50;42.40;;;;;;474184;251;1246;-47
2021/11/09 00:59:22;;;;;;;;;;;20.50;42.40;;;;;;474442;251;1078;-47
2021/11/09 01:01:24;;;;;;;;;;;20.50;42.30;;;;;;474273;251;1450;-46
2021/11/09 01:03:25;;;;;;;;;;;20.50;42.40;;;;;;474264;251;1054;-47
2021/11/09 01:05:26;;;;;;;;;;;20.50;42.40;;;;;;474632;251;2119;-46
2021/11/09 01:07:28;;;;;;;;;;;20.50;42.40;;;;;;474155;251;1155;-46
2021/11/09 01:09:29;;;;;;;;;;;20.40;42.40;;;;;;474548;251;1062;-46
2021/11/09 01:11:30;;;;;;;;;;;20.50;42.40;;;;;;474190;251;1152;-47
2021/11/09 01:13:32;;;;;;;;;;;20.50;42.40;;;;;;474535;251;2303;-47
2021/11/09 01:15:33;;;;;;;;;;;20.50;42.40;;;;;;474208;251;1083;-46
2021/11/09 01:17:35;;;;;;;;;;;20.50;42.40;;;;;;474273;251;1122;-47
2021/11/09 01:19:36;;;;;;;;;;;20.50;42.40;;;;;;474746;251;1035;-47
2021/11/09 01:21:37;;;;;;;;;;;20.50;42.40;;;;;;474663;251;1256;-47
2021/11/09 01:23:38;;;;;;;;;;;20.50;42.40;;;;;;474335;251;1219;-47
2021/11/09 01:25:40;;;;;;;;;;;20.50;42.40;;;;;;474262;251;2126;-47
2021/11/09 01:27:41;;;;;;;;;;;20.50;42.50;;;;;;474438;251;1411;-47
2021/11/09 01:29:42;;;;;;;;;;;20.40;42.40;;;;;;474358;251;1168;-47
2021/11/09 01:31:44;;;;;;;;;;;20.40;42.40;;;;;;474682;251;1295;-47
2021/11/09 01:33:45;;;;;;;;;;;20.50;42.40;;;;;;474656;251;1043;-47
2021/11/09 01:35:46;;;;;;;;;;;20.50;42.40;;;;;;474376;251;1085;-47
2021/11/09 01:37:48;;;;;;;;;;;20.50;42.40;;;;;;474329;251;1186;-47
2021/11/09 01:39:49;;;;;;;;;;;20.40;42.40;;;;;;474665;251;967;-47
2021/11/09 01:41:50;;;;;;;;;;;20.40;42.40;;;;;;474571;251;1335;-47
2021/11/09 01:43:52;;;;;;;;;;;20.40;42.40;;;;;;474634;251;1441;-47
2021/11/09 01:45:53;;;;;;;;;;;20.40;42.50;;;;;;474576;251;2126;-47
2021/11/09 01:47:54;;;;;;;;;;;20.50;42.50;;;;;;474613;251;1183;-47
2021/11/09 01:49:56;;;;;;;;;;;20.40;42.40;;;;;;474618;251;1195;-47
2021/11/09 01:51:58;;;;;;;;;;;20.40;42.50;;;;;;474406;251;1201;-47
2021/11/09 01:53:58;;;;;;;;;;;20.40;42.40;;;;;;474337;251;2400;-47
2021/11/09 01:56:01;;;;;;;;;;;20.40;42.40;;;;;;474554;251;1118;-47
2021/11/09 01:58:01;;;;;;;;;;;20.40;42.40;;;;;;474598;251;2052;-47
2021/11/09 02:00:03;;;;;;;;;;;20.40;42.40;;;;;;474226;251;1048;-47
2021/11/09 02:02:04;;;;;;;;;;;20.40;42.50;;;;;;474281;251;2021;-47
2021/11/09 02:04:05;;;;;;;;;;;20.40;42.40;;;;;;474675;251;1093;-46
2021/11/09 02:06:06;;;;;;;;;;;20.40;42.50;;;;;;474164;251;2119;-46
2021/11/09 02:08:08;;;;;;;;;;;20.40;42.40;;;;;;474209;251;1172;-47
2021/11/09 02:10:09;;;;;;;;;;;20.40;42.40;;;;;;474673;251;993;-47
2021/11/09 02:12:10;;;;;;;;;;;20.40;42.40;;;;;;474276;251;1298;-47
2021/11/09 02:14:11;;;;;;;;;;;20.40;42.50;;;;;;474703;251;1026;-46
2021/11/09 02:16:13;;;;;;;;;;;20.40;42.40;;;;;;474308;245;1231;-46
2021/11/09 02:18:14;;;;;;;;;;;20.40;42.40;;;;;;474727;251;1046;-46
2021/11/09 02:20:15;;;;;;;;;;;20.40;42.40;;;;;;474700;251;1204;-47
2021/11/09 02:22:17;;;;;;;;;;;20.40;42.50;;;;;;474547;251;1147;-46
2021/11/09 02:24:18;;;;;;;;;;;20.40;42.50;;;;;;474394;251;1220;-46
2021/11/09 02:26:19;;;;;;;;;;;20.40;42.50;;;;;;474540;251;2125;-47
2021/11/09 02:28:21;;;;;;;;;;;20.40;42.40;;;;;;474224;251;1198;-46
2021/11/09 02:30:23;;;;;;;;;;;20.40;42.40;;;;;;474615;251;1091;-47
2021/11/09 02:32:24;;;;;;;;;;;20.40;42.50;;;;;;474620;251;1145;-47
2021/11/09 02:34:25;;;;;;;;;;;20.40;42.40;;;;;;474322;251;1004;-47
2021/11/09 02:36:26;;;;;;;;;;;20.40;42.50;;;;;;474175;247;1344;-47
2021/11/09 02:38:28;;;;;;;;;;;20.40;42.40;;;;;;474507;251;1137;-47
2021/11/09 02:40:29;;;;;;;;;;;20.50;42.40;;;;;;474209;251;1098;-47
2021/11/09 02:42:30;;;;;;;;;;;20.50;42.50;;;;;;474303;251;1750;-46
2021/11/09 02:44:32;;;;;;;;;;;20.50;42.40;;;;;;474655;251;1183;-47
2021/11/09 02:46:42;;;;;;;;;;;20.50;42.40;;;;;;474340;251;2199;-47
2021/11/09 02:48:43;;;;;;;;;;;20.40;42.40;;;;;;474122;251;2094;-47
2021/11/09 02:50:45;;;;;;;;;;;20.40;42.40;;;;;;474025;251;1507;-47
2021/11/09 02:52:50;;;;;;;;;;;20.40;42.40;;;;;;473932;251;1840;-46
2021/11/09 02:54:49;;;;;;;;;;;20.40;42.40;;;;;;474003;251;2317;-47
2021/11/09 02:56:52;;;;;;;;;;;20.40;42.40;;;;;;474097;244;2265;-47
2021/11/09 02:58:55;;;;;;;;;;;20.40;42.40;;;;;;473983;251;2398;-46
2021/11/09 03:01:03;;;;;;;;;;;20.50;42.40;;;;;;473893;251;2117;-47
2021/11/09 03:03:00;;;;;;;;;;;20.40;42.40;;;;;;473787;251;2319;-47
2021/11/09 03:05:05;;;;;;;;;;;20.50;42.50;;;;;;474116;251;1798;-47
2021/11/09 03:07:06;;;;;;;;;;;20.40;42.40;;;;;;473888;250;2114;-47
2021/11/09 03:09:09;;;;;;;;;;;20.40;42.50;;;;;;474043;251;1958;-47
2021/11/09 03:11:08;;;;;;;;;;;20.40;42.40;;;;;;474041;251;2124;-47
2021/11/09 03:13:10;;;;;;;;;;;20.40;42.40;;;;;;474304;251;1039;-47
2021/11/09 03:15:11;;;;;;;;;;;20.40;42.40;;;;;;474609;251;1079;-47
2021/11/09 03:17:16;;;;;;;;;;;20.40;42.40;;;;;;474238;251;1267;-47
2021/11/09 03:19:25;;;;;;;;;;;20.40;42.40;;;;;;474492;251;2383;-46
2021/11/09 03:40:08;;;;;;;;;;;20.40;42.40;;;;;;474290;251;1134;-46
2021/11/09 03:44:29;;;;;;;;;;;20.50;42.30;;;;;;474269;251;1057;-46
2021/11/09 03:46:29;;;;;;;;;;;20.50;42.40;;;;;;473929;251;2139;-47
2021/11/09 03:48:26;;;;;;;;;;;20.40;42.30;;;;;;474406;251;1364;-47
2021/11/09 03:50:28;;;;;;;;;;;20.50;42.30;;;;;;474224;251;1088;-46
2021/11/09 03:52:37;;;;;;;;;;;20.40;42.30;;;;;;474658;251;1025;-47
2021/11/09 03:54:31;;;;;;;;;;;20.40;42.40;;;;;;474070;251;2106;-47
2021/11/09 03:56:37;;;;;;;;;;;20.40;42.40;;;;;;474597;251;2155;-47
2021/11/09 03:58:37;;;;;;;;;;;20.40;42.40;;;;;;473973;251;2108;-46
2021/11/09 04:00:41;;;;;;;;;;;20.40;42.30;;;;;;474124;251;2071;-46
2021/11/09 04:02:45;;;;;;;;;;;20.40;42.30;;;;;;473822;251;1905;-46
2021/11/09 04:04:43;;;;;;;;;;;20.40;42.40;;;;;;473678;251;2293;-47
2021/11/09 04:06:42;;;;;;;;;;;20.40;42.40;;;;;;474339;251;2221;-47
2021/11/09 04:08:45;;;;;;;;;;;20.40;42.30;;;;;;474125;251;2351;-47
2021/11/09 04:10:48;;;;;;;;;;;20.40;42.30;;;;;;474056;251;1945;-47
2021/11/09 04:13:10;;;;;;;;;;;20.40;42.30;;;;;;473798;251;2255;-47
2021/11/09 04:15:17;;;;;;;;;;;20.40;42.30;;;;;;474286;251;2135;-47
2021/11/09 04:17:15;;;;;;;;;;;20.50;42.30;;;;;;474075;251;2387;-46
2021/11/09 04:19:21;;;;;;;;;;;20.40;42.20;;;;;;474249;251;1772;-47
2021/11/09 04:21:32;;;;;;;;;;;20.40;42.30;;;;;;473983;245;2346;-47
2021/11/09 04:28:19;;;;;;;;;;;20.40;42.30;;;;;;469064;254;1617;-47
2021/11/09 04:30:36;;;;;;;;;;;20.40;42.40;;;;;;472993;251;2059;-47
2021/11/09 04:32:45;;;;;;;;;;;20.40;42.40;;;;;;487289;243;2078;-47
2021/11/09 04:40:22;;;;;;;;;;;20.40;42.40;;;;;;488112;244;1612;-46
2021/11/09 04:43:10;;;;;;;;;;;20.50;42.30;;;;;;486556;244;1994;-47
2021/11/09 04:53:46;;;;;;;;;;;20.40;42.30;;;;;;487861;243;985;-47
2021/11/09 05:02:51;;;;;;;;;;;20.40;42.50;;;;;;487557;243;1116;-46
2021/11/09 05:09:35;;;;;;;;;;;20.40;42.40;;;;;;475330;243;1239;-47
2021/11/09 05:11:37;;;;;;;;;;;20.30;42.40;;;;;;487524;244;1598;-47
2021/11/09 05:13:36;;;;;;;;;;;20.30;42.40;;;;;;488061;243;2439;-46
2021/11/09 05:15:37;;;;;;;;;;;20.40;42.40;;;;;;488094;244;1114;-47
2021/11/09 05:17:38;;;;;;;;;;;20.40;42.30;;;;;;487541;244;1512;-47
2021/11/09 05:19:40;;;;;;;;;;;20.40;42.40;;;;;;487579;244;1055;-47
2021/11/09 05:21:41;;;;;;;;;;;20.40;42.30;;;;;;478544;248;1239;-47
2021/11/09 05:23:42;;;;;;;;;;;20.40;42.40;;;;;;474287;251;1086;-47
2021/11/09 05:25:44;;;;;;;;;;;20.40;42.30;;;;;;474201;251;1185;-47
2021/11/09 05:27:46;;;;;;;;;;;20.40;42.30;;;;;;474120;251;2185;-47
2021/11/09 05:29:48;;;;;;;;;;;20.50;42.30;;;;;;474175;251;1096;-47
2021/11/09 05:31:55;;;;;;;;;;;20.40;42.30;;;;;;474233;247;1342;-47
2021/11/09 05:33:54;;;;;;;;;;;20.40;42.40;;;;;;473760;251;1593;-47
2021/11/09 05:35:52;;;;;;;;;;;20.40;42.40;;;;;;473916;251;2220;-46
2021/11/09 05:37:54;;;;;;;;;;;20.40;42.40;;;;;;474536;251;1074;-47
2021/11/09 05:39:56;;;;;;;;;;;20.40;42.40;;;;;;474130;251;2367;-47
2021/11/09 05:41:56;;;;;;;;;;;20.30;42.40;;;;;;473951;251;2107;-47
2021/11/09 05:43:57;;;;;;;;;;;20.40;42.40;;;;;;474066;251;1115;-47
2021/11/09 05:45:59;;;;;;;;;;;20.40;42.40;;;;;;475049;243;2121;-47
2021/11/09 05:48:00;;;;;;;;;;;20.40;42.30;;;;;;474010;251;1112;-47
2021/11/09 05:50:01;;;;;;;;;;;20.50;42.30;;;;;;474151;251;1072;-47
2021/11/09 05:52:02;;;;;;;;;;;20.50;42.30;;;;;;474335;251;1291;-47
2021/11/09 05:54:04;;;;;;;;;;;20.40;42.30;;;;;;474116;251;1078;-47
2021/11/09 05:56:05;;;;;;;;;;;20.40;42.30;;;;;;474067;251;1250;-47
2021/11/09 05:58:06;;;;;;;;;;;20.40;42.30;;;;;;474129;251;1051;-46
2021/11/09 06:00:08;;;;;;;;;;;20.40;42.30;;;;;;474054;251;1108;-47
2021/11/09 06:02:09;;;;;;;;;;;20.40;42.30;;;;;;474018;251;1230;-47
2021/11/09 06:04:10;;;;;;;;;;;20.40;42.40;;;;;;474527;251;1056;-46
2021/11/09 06:06:12;;;;;;;;;;;20.40;42.40;;;;;;474500;251;2122;-46
2021/11/09 06:08:13;;;;;;;;;;;20.40;42.30;;;;;;474015;251;1120;-47
2021/11/09 06:10:14;;;;;;;;;;;20.40;42.30;;;;;;474032;251;1533;-47
2021/11/09 06:12:16;;;;;;;;;;;20.40;42.30;;;;;;474058;251;1274;-47
2021/11/09 06:14:17;;;;;;;;;;;20.40;42.30;;;;;;473961;251;1202;-46
2021/11/09 06:16:18;;;;;;;;;;;20.40;42.30;;;;;;474218;251;1194;-47
2021/11/09 06:18:20;;;;;;;;;;;20.40;42.30;;;;;;473928;251;1167;-47
2021/11/09 06:20:21;;;;;;;;;;;20.40;42.20;;;;;;473992;251;1059;-47
2021/11/09 06:22:22;;;;;;;;;;;20.40;42.30;;;;;;473729;251;1208;-47
2021/11/09 06:24:24;;;;;;;;;;;20.40;42.30;;;;;;474086;251;1102;-46
2021/11/09 06:26:25;;;;;;;;;;;20.40;42.20;;;;;;473841;251;2177;-47
2021/11/09 06:28:27;;;;;;;;;;;20.40;42.30;;;;;;474046;251;1565;-47
2021/11/09 06:30:28;;;;;;;;;;;20.40;42.30;;;;;;473964;251;1131;-47
2021/11/09 06:32:29;;;;;;;;;;;20.40;42.30;;;;;;473963;251;1219;-47
2021/11/09 06:34:30;;;;;;;;;;;20.40;42.30;;;;;;474010;251;1044;-47
2021/11/09 06:36:33;;;;;;;;;;;20.40;42.40;;;;;;473964;251;1153;-47
2021/11/09 06:38:33;;;;;;;;;;;20.40;42.20;;;;;;473842;251;2161;-47
2021/11/09 06:40:34;;;;;;;;;;;20.40;42.30;;;;;;473890;251;1315;-47
2021/11/09 06:42:36;;;;;;;;;;;20.40;42.30;;;;;;473871;251;1236;-47
2021/11/09 06:44:37;;;;;;;;;;;20.40;42.30;;;;;;474099;251;1116;-46
2021/11/09 06:46:38;;;;;;;;;;;20.40;42.30;;;;;;473976;251;2201;-47
2021/11/09 06:48:40;;;;;;;;;;;20.40;42.20;;;;;;474115;251;1089;-47
2021/11/09 06:50:41;;;;;;;;;;;20.40;42.20;;;;;;474239;251;1183;-47
2021/11/09 06:52:42;;;;;;;;;;;20.40;42.30;;;;;;473781;251;1348;-47
2021/11/09 06:54:44;;;;;;;;;;;20.40;42.20;;;;;;473701;251;1068;-47
2021/11/09 06:56:45;;;;;;;;;;;20.40;42.10;;;;;;473775;251;1271;-47
2021/11/09 06:58:47;;;;;;;;;;;20.40;42.20;;;;;;473820;251;1109;-47
2021/11/09 07:00:48;;;;;;;;;;;20.50;42.20;;;;;;474031;251;1249;-47
2021/11/09 07:02:49;;;;;;;;;;;20.50;42.20;;;;;;473863;251;1117;-47
2021/11/09 07:04:51;;;;;;;;;;;20.50;42.10;;;;;;473677;251;1096;-47
2021/11/09 07:06:52;;;;;;;;;;;20.50;42.00;;;;;;473636;251;2221;-47
2021/11/09 07:08:53;;;;;;;;;;;20.50;42.10;;;;;;473842;251;1178;-46
2021/11/09 07:10:55;;;;;;;;;;;20.40;42.10;;;;;;473828;251;1139;-47
2021/11/09 07:12:56;;;;;;;;;;;20.40;42.20;;;;;;473806;251;1212;-47
2021/11/09 07:14:58;;;;;;;;;;;20.40;42.20;;;;;;473766;251;1179;-47
2021/11/09 07:16:59;;;;;;;;;;;20.40;42.20;;;;;;473587;251;2272;-47
2021/11/09 07:19:02;;;;;;;;;;;20.50;42.20;;;;;;473776;251;1090;-47
2021/11/09 07:21:02;;;;;;;;;;;20.50;42.10;;;;;;473594;251;1328;-46
2021/11/09 07:23:04;;;;;;;;;;;20.50;42.10;;;;;;473771;251;1251;-47
2021/11/09 07:25:05;;;;;;;;;;;20.50;42.20;;;;;;473623;251;1125;-47
2021/11/09 07:27:06;;;;;;;;;;;20.50;42.20;;;;;;473693;251;2193;-46
2021/11/09 07:29:08;;;;;;;;;;;20.50;42.10;;;;;;473608;251;1203;-46
2021/11/09 07:31:12;;;;;;;;;;;20.60;42.10;;;;;;473640;251;1105;-47
2021/11/09 07:33:10;;;;;;;;;;;20.50;42.10;;;;;;473499;251;2457;-47
2021/11/09 07:35:12;;;;;;;;;;;20.60;42.10;;;;;;473744;251;1229;-47
2021/11/09 07:37:13;;;;;;;;;;;20.60;42.20;;;;;;473577;246;2351;-47
2021/11/09 07:39:14;;;;;;;;;;;20.50;42.10;;;;;;473662;251;1053;-47
2021/11/09 07:41:17;;;;;;;;;;;20.50;42.10;;;;;;473418;251;1175;-47
2021/11/09 07:43:18;;;;;;;;;;;20.60;42.20;;;;;;473499;251;1282;-46
2021/11/09 07:45:19;;;;;;;;;;;20.60;42.20;;;;;;473694;251;1137;-46
2021/11/09 07:47:21;;;;;;;;;;;20.60;42.20;;;;;;473496;251;2197;-47
2021/11/09 07:49:22;;;;;;;;;;;20.50;42.20;;;;;;472960;251;1337;-46
2021/11/09 07:51:23;;;;;;;;;;;20.60;42.10;;;;;;473155;251;1257;-46
2021/11/09 07:53:29;;;;;;;;;;;20.60;42.10;;;;;;473990;251;1498;-47
2021/11/09 07:55:26;;;;;;;;;;;20.60;41.90;;;;;;473360;251;1752;-47
2021/11/09 07:57:31;;;;;;;;;;;20.70;41.90;;;;;;473506;251;1248;-47
2021/11/09 07:59:34;;;;;;;;;;;20.60;41.90;;;;;;473017;251;2316;-47
2021/11/09 08:01:34;;;;;;;;;;;20.70;41.80;;;;;;472859;251;2125;-47
2021/11/09 08:03:37;;;;;;;;;;;20.70;41.80;;;;;;473819;251;1965;-46
2021/11/09 08:05:39;;;;;;;;;;;20.70;41.80;;;;;;473890;251;2140;-47
2021/11/09 08:07:50;;;;;;;;;;;20.70;41.90;;;;;;473357;251;2193;-47
2021/11/09 08:09:39;;;;;;;;;;;20.70;41.80;;;;;;472510;251;1698;-47
2021/11/09 08:11:42;;;;;;;;;;;20.70;41.70;;;;;;473249;251;1581;-47
2021/11/09 08:13:42;;;;;;;;;;;20.70;41.70;;;;;;473506;251;2339;-47
2021/11/09 08:15:43;;;;;;;;;;;20.70;41.70;;;;;;473941;251;879;-47
2021/11/09 08:17:45;;;;;;;;;;;20.70;41.60;;;;;;473538;251;1405;-46
2021/11/09 08:19:46;;;;;;;;;;;20.70;41.60;;;;;;474068;251;1221;-47
2021/11/09 08:21:47;;;;;;;;;;;20.70;41.60;;;;;;473974;251;1220;-47
2021/11/09 08:23:49;;;;;;;;;;;20.70;41.60;;;;;;474067;251;934;-46
2021/11/09 08:25:50;;;;;;;;;;;20.80;41.60;;;;;;473215;251;1268;-46
2021/11/09 08:27:51;;;;;;;;;;;20.80;41.60;;;;;;473402;251;2201;-46
2021/11/09 08:29:53;;;;;;;;;;;20.70;41.60;;;;;;473423;251;1117;-47
2021/11/09 08:31:54;;;;;;;;;;;20.70;41.50;;;;;;473397;251;1199;-46
2021/11/09 08:33:55;;;;;;;;;;;20.80;41.50;;;;;;473682;251;845;-47
2021/11/09 08:35:58;;;;;;;;;;;20.80;41.50;;;;;;474059;251;1417;-47
2021/11/09 08:37:58;;;;;;;;;;;20.80;41.50;;;;;;473429;251;2238;-47
2021/11/09 08:40:02;;;;;;;;;;;20.80;41.50;;;;;;473564;251;1097;-46
2021/11/09 08:42:11;;;;;;;;;;;20.80;41.50;;;;;;473390;251;2366;-47
2021/11/09 08:44:05;;;;;;;;;;;20.80;41.50;;;;;;472712;251;2150;-47
2021/11/09 08:46:11;;;;;;;;;;;20.80;41.50;;;;;;473152;251;2136;-46
2021/11/09 08:48:12;;;;;;;;;;;20.80;41.50;;;;;;472988;251;2323;-47
2021/11/09 08:50:12;;;;;;;;;;;20.80;41.40;;;;;;473159;251;2125;-47
2021/11/09 08:52:13;;;;;;;;;;;20.80;41.50;;;;;;473853;251;2170;-47
2021/11/09 08:54:19;;;;;;;;;;;20.80;41.50;;;;;;473341;251;2197;-47
2021/11/09 08:56:27;;;;;;;;;;;20.80;41.50;;;;;;473129;251;2231;-47
2021/11/09 09:01:18;;;;;;;;;;;20.80;41.40;;;;;;473342;251;1614;-47
2021/11/09 09:05:26;;;;;;;;;;;20.80;41.30;;;;;;473289;251;1354;-47
2021/11/09 09:07:27;;;;;;;;;;;20.80;41.30;;;;;;473317;251;2209;-47
2021/11/09 09:09:28;;;;;;;;;;;20.80;41.30;;;;;;473382;251;1325;-47
2021/11/09 09:11:30;;;;;;;;;;;20.80;41.40;;;;;;473240;246;1358;-47
2021/11/09 09:13:31;;;;;;;;;;;20.80;41.30;;;;;;473478;251;1274;-47
2021/11/09 09:15:33;;;;;;;;;;;20.80;41.40;;;;;;473343;251;1081;-47
2021/11/09 09:17:35;;;;;;;;;;;20.90;41.30;;;;;;473361;251;1155;-47
2021/11/09 09:19:40;;;;;;;;;;;20.80;41.30;;;;;;473352;251;2288;-47
2021/11/09 09:21:40;;;;;;;;;;;20.80;41.30;;;;;;472993;246;1777;-47
2021/11/09 09:23:44;;;;;;;;;;;20.80;41.30;;;;;;473189;251;2106;-47
2021/11/09 09:25:48;;;;;;;;;;;20.80;41.30;;;;;;473041;251;2249;-47
2021/11/09 09:28:09;;;;;;;;;;;20.80;41.20;;;;;;473995;251;2122;-46
2021/11/09 09:53:43;;;;;;;;;;;20.90;41.20;;;;;;487550;243;1060;-47
2021/11/09 09:55:39;;;;;;;;;;;20.90;41.20;;;;;;477198;249;2334;-47
2021/11/09 09:57:41;;;;;;;;;;;20.90;41.20;;;;;;473989;251;1127;-47
2021/11/09 09:59:42;;;;;;;;;;;20.90;41.20;;;;;;473600;251;2148;-47
2021/11/09 10:01:43;;;;;;;;;;;20.80;41.20;;;;;;473323;251;1222;-47
2021/11/09 10:03:45;;;;;;;;;;;20.90;41.30;;;;;;473176;251;1414;-47
2021/11/09 10:05:46;;;;;;;;;;;20.80;41.20;;;;;;473187;251;1208;-47
2021/11/09 10:07:50;;;;;;;;;;;20.90;41.20;;;;;;473287;251;2134;-46
2021/11/09 10:09:49;;;;;;;;;;;20.90;41.20;;;;;;473167;251;2208;-46
2021/11/09 10:11:51;;;;;;;;;;;20.90;41.10;;;;;;473275;251;1139;-47
2021/11/09 10:13:52;;;;;;;;;;;20.90;41.20;;;;;;473346;251;2277;-46
2021/11/09 10:15:53;;;;;;;;;;;20.90;41.10;;;;;;473403;251;1205;-46
2021/11/09 10:17:54;;;;;;;;;;;20.90;41.10;;;;;;473214;251;1230;-47
2021/11/09 10:19:56;;;;;;;;;;;20.90;41.10;;;;;;473403;251;1211;-46
2021/11/09 10:21:57;;;;;;;;;;;20.90;41.10;;;;;;473320;244;1159;-46
2021/11/09 10:23:58;;;;;;;;;;;20.90;41.10;;;;;;473334;251;1880;-47
2021/11/09 10:26:01;;;;;;;;;;;20.90;41.10;;;;;;473211;251;1099;-47
2021/11/09 10:28:01;;;;;;;;;;;20.90;41.10;;;;;;473214;251;2189;-47
2021/11/09 10:30:02;;;;;;;;;;;20.90;41.10;;;;;;473236;251;1490;-47
2021/11/09 10:32:04;;;;;;;;;;;20.90;41.10;;;;;;473229;251;1338;-47
2021/11/09 10:34:05;;;;;;;;;;;20.90;41.10;;;;;;473402;251;1060;-47
2021/11/09 10:36:06;;;;;;;;;;;20.90;41.10;;;;;;473311;251;1356;-47
2021/11/09 10:38:08;;;;;;;;;;;20.90;41.10;;;;;;473140;251;1131;-47
2021/11/09 10:40:09;;;;;;;;;;;20.90;41.00;;;;;;473068;251;1334;-47
2021/11/09 10:42:10;;;;;;;;;;;20.90;41.00;;;;;;473180;251;1359;-46
2021/11/09 10:44:12;;;;;;;;;;;20.90;41.10;;;;;;473385;251;1136;-47
2021/11/09 10:46:13;;;;;;;;;;;21.00;41.00;;;;;;473321;251;1133;-47
2021/11/09 10:48:15;;;;;;;;;;;21.00;41.00;;;;;;473096;251;2225;-46
2021/11/09 10:50:20;;;;;;;;;;;20.90;41.00;;;;;;473145;251;1130;-46
2021/11/09 10:52:24;;;;;;;;;;;20.90;41.10;;;;;;473504;251;2187;-47
2021/11/09 10:54:21;;;;;;;;;;;20.90;41.00;;;;;;473970;251;2138;-46
2021/11/09 10:56:31;;;;;;;;;;;21.00;41.00;;;;;;473541;251;1150;-47
2021/11/09 11:03:20;;;;;;;;;;;21.00;41.00;;;;;;472213;251;1532;-47
2021/11/09 11:05:19;;;;;;;;;;;20.90;40.90;;;;;;486774;243;1416;-47
2021/11/09 11:07:20;;;;;;;;;;;20.90;40.90;;;;;;486836;244;1133;-47
2021/11/09 11:09:22;;;;;;;;;;;20.90;41.00;;;;;;477613;248;2195;-47
2021/11/09 11:11:23;;;;;;;;;;;20.90;40.90;;;;;;473172;251;1990;-47
2021/11/09 11:13:24;;;;;;;;;;;20.90;41.00;;;;;;473346;251;1116;-47
2021/11/09 11:15:27;;;;;;;;;;;20.90;40.90;;;;;;473379;251;1164;-47
2021/11/09 11:17:27;;;;;;;;;;;20.90;40.90;;;;;;473173;251;2092;-47
2021/11/09 11:19:28;;;;;;;;;;;20.90;40.90;;;;;;473436;251;1166;-47
2021/11/09 11:21:30;;;;;;;;;;;20.90;40.90;;;;;;473352;251;1236;-47
2021/11/09 11:23:31;;;;;;;;;;;20.90;40.90;;;;;;473260;251;1171;-46
2021/11/09 11:25:32;;;;;;;;;;;21.00;40.90;;;;;;473203;251;1150;-47
2021/11/09 11:27:34;;;;;;;;;;;20.90;40.80;;;;;;473307;251;1262;-47
2021/11/09 11:29:36;;;;;;;;;;;20.90;40.90;;;;;;473343;251;2193;-47
2021/11/09 11:31:36;;;;;;;;;;;20.90;40.90;;;;;;473320;251;2347;-47
2021/11/09 11:33:38;;;;;;;;;;;20.90;40.80;;;;;;473261;251;1252;-47
2021/11/09 11:35:39;;;;;;;;;;;20.90;40.80;;;;;;473317;251;1122;-47
2021/11/09 11:37:41;;;;;;;;;;;20.90;40.90;;;;;;473144;251;1073;-47
2021/11/09 11:39:42;;;;;;;;;;;20.90;40.80;;;;;;473249;251;1058;-47
2021/11/09 11:41:44;;;;;;;;;;;20.90;40.80;;;;;;473087;251;1216;-47
2021/11/09 11:43:45;;;;;;;;;;;20.90;40.80;;;;;;473310;251;2102;-46
2021/11/09 11:45:46;;;;;;;;;;;20.90;40.70;;;;;;473384;251;1323;-47
2021/11/09 11:47:47;;;;;;;;;;;20.90;40.70;;;;;;473176;251;1208;-46
2021/11/09 11:49:49;;;;;;;;;;;20.90;40.70;;;;;;473216;251;2182;-47
2021/11/09 11:51:50;;;;;;;;;;;20.90;40.70;;;;;;473071;251;2268;-47
2021/11/09 11:53:54;;;;;;;;;;;20.90;40.70;;;;;;473365;251;1907;-47
2021/11/09 11:55:53;;;;;;;;;;;20.90;40.70;;;;;;473097;251;2120;-47
2021/11/09 11:57:54;;;;;;;;;;;20.90;40.60;;;;;;473302;251;1244;-47
2021/11/09 11:59:55;;;;;;;;;;;20.90;40.60;;;;;;473237;251;1382;-47
2021/11/09 12:01:57;;;;;;;;;;;20.90;40.50;;;;;;473170;251;1316;-47
2021/11/09 12:03:58;;;;;;;;;;;20.90;40.50;;;;;;473224;251;1227;-47
2021/11/09 12:05:59;;;;;;;;;;;20.90;40.50;;;;;;473185;251;1260;-47
2021/11/09 12:08:01;;;;;;;;;;;20.90;40.50;;;;;;474108;251;1218;-47
2021/11/09 12:10:02;;;;;;;;;;;20.90;40.40;;;;;;474138;251;2221;-46
2021/11/09 12:12:03;;;;;;;;;;;20.90;40.40;;;;;;473898;251;1095;-46
2021/11/09 12:14:05;;;;;;;;;;;20.90;40.40;;;;;;473631;251;1107;-47
2021/11/09 12:16:06;;;;;;;;;;;20.90;40.40;;;;;;473421;251;1301;-47
2021/11/09 12:18:07;;;;;;;;;;;20.90;40.40;;;;;;473489;251;1066;-46
2021/11/09 12:20:09;;;;;;;;;;;20.90;40.40;;;;;;473419;251;1098;-46
2021/11/09 12:22:10;;;;;;;;;;;20.80;40.40;;;;;;473352;251;1241;-47
2021/11/09 12:24:12;;;;;;;;;;;20.90;40.30;;;;;;473291;251;1123;-46
2021/11/09 12:26:12;;;;;;;;;;;20.90;40.30;;;;;;473143;251;2308;-47
2021/11/09 12:28:14;;;;;;;;;;;20.90;40.30;;;;;;473717;251;2185;-47
2021/11/09 12:30:15;;;;;;;;;;;20.90;40.30;;;;;;473406;251;1109;-47
2021/11/09 12:32:16;;;;;;;;;;;20.90;40.30;;;;;;473439;251;1211;-46
2021/11/09 12:34:18;;;;;;;;;;;20.90;40.20;;;;;;473298;251;1231;-47
2021/11/09 12:36:19;;;;;;;;;;;20.90;40.20;;;;;;473396;251;1451;-47
2021/11/09 12:38:20;;;;;;;;;;;20.90;40.20;;;;;;473720;251;1208;-47
2021/11/09 12:40:22;;;;;;;;;;;20.90;40.20;;;;;;473302;251;1331;-47
2021/11/09 12:42:23;;;;;;;;;;;20.90;40.10;;;;;;473618;251;1255;-47
2021/11/09 12:44:24;;;;;;;;;;;20.90;40.10;;;;;;474069;251;1310;-47
2021/11/09 12:46:27;;;;;;;;;;;20.90;40.20;;;;;;473983;251;1210;-46
2021/11/09 12:48:27;;;;;;;;;;;20.90;40.20;;;;;;473492;251;2197;-47
2021/11/09 12:50:28;;;;;;;;;;;20.80;40.10;;;;;;473477;251;1147;-47
2021/11/09 12:52:30;;;;;;;;;;;20.90;40.10;;;;;;473110;251;1127;-47
2021/11/09 12:54:33;;;;;;;;;;;20.90;40.10;;;;;;473389;251;1134;-47
2021/11/09 12:56:33;;;;;;;;;;;20.90;40.10;;;;;;473291;251;1909;-46
2021/11/09 12:58:35;;;;;;;;;;;20.80;40.10;;;;;;473044;251;1998;-47
2021/11/09 13:00:40;;;;;;;;;;;20.80;40.00;;;;;;473459;244;2032;-46
2021/11/09 13:02:40;;;;;;;;;;;20.90;40.00;;;;;;472864;251;2312;-47
2021/11/09 13:04:48;;;;;;;;;;;20.90;40.00;;;;;;473539;251;2411;-47
2021/11/09 13:06:50;;;;;;;;;;;20.90;39.90;;;;;;473742;251;2117;-47
2021/11/09 13:08:53;;;;;;;;;;;20.90;39.90;;;;;;474130;251;2200;-47
2021/11/09 13:10:52;;;;;;;;;;;20.90;39.80;;;;;;473665;251;2193;-47
2021/11/09 13:12:54;;;;;;;;;;;20.90;39.90;;;;;;473278;251;1223;-47
2021/11/09 13:14:54;;;;;;;;;;;20.90;39.80;;;;;;473364;251;1650;-47
2021/11/09 13:16:56;;;;;;;;;;;21.00;39.80;;;;;;473331;251;1333;-47
2021/11/09 13:18:57;;;;;;;;;;;20.90;39.80;;;;;;473319;251;1356;-47
2021/11/09 13:21:05;;;;;;;;;;;20.90;39.80;;;;;;473488;251;1363;-47
2021/11/09 13:23:00;;;;;;;;;;;20.90;39.70;;;;;;472854;251;2065;-46
2021/11/09 13:25:02;;;;;;;;;;;20.90;39.80;;;;;;473232;251;1100;-47